KACT - Waco Rgnl, TX, US

Issued at 2322 UTC 14 Aug 2020
Updated at 0209 UTC 15 Aug 2020
Potential Impact None Slight Moderate High
Time0151Z 15/03Z 15/04Z 15/05Z 15/06Z 15/07Z 15/08Z 15/09Z 15/10Z 15/11Z 15/12Z 15/13Z 15/14Z 15/15Z>>
Type OBS PRVL PRVL PRVL PRVL PRVL PRVL PRVL PRVL PRVL PRVL PRVL PRVL PRVL
VIS 10 >6 >6 >6 >6 >6 >6 >6 >6 >6 >6 >6 >6 >6
CIG -- -- -- -- -- -- -- -- -- -- -- -- -- --
Cover CLR SKC SKC SKC SKC SKC SKC SKC SKC SKC SKC SKC SKC SKC
FltCat VFR VFR VFR VFR VFR VFR VFR VFR VFR VFR VFR VFR VFR VFR
WX -- -- -- -- -- -- -- -- -- -- -- -- -- --
WDir 170 170 170 170 170 170 170 170 170 170 170 170 170 170
WSpd 9 10 10 10 10 10 10 10 10 10 10 10 10 10
WGst -- -- -- -- -- -- -- -- -- -- -- -- -- --
Raw TAF
KACT 142322Z 1500/1524 17010KT P6SM SKC

Raw METAR
KACT 150151Z AUTO 17009KT 10SM CLR 35/17 A2981 RMK AO2 SLP085 T03500167
KACT 150051Z 17012KT 10SM CLR 37/16 A2980 RMK AO2 SLP081 T03670156
KACT 142351Z 16012KT 10SM CLR 39/15 A2979 RMK AO2 SLP078 T03890150 10406 20372 56015

METAR Board
Radar Display
Forecast Discussion
For situational awareness. Not to be used for flight planning purposes.